Bellona, New York
Current Conditions -  °F | °C
As of 12:53 AM on Friday 19 Dec 2014 (Local Time) from KPEO Reporting Station
Overcast Overcast  
Wind Chill: 23°   Ceiling: 1000
Heat Index: 29°   Visibility: 9mi
Dew Point: 25°   Wind: 6mph
Humidity: 85%   Direction: 310°NW
Pressure: 30.01"   Gusts: NA
Location:  42.76°N, 77.01°W
Report Text: KPEO 190553Z AUTO 31005KT 9SM OVC010 M02/M04 A3001 RMK AO2 FZRAB00E31SNB36E46 SLP175 P0000 60000 I1001 I6002 T10171039 11006 21017 50000
Loading
Personal Weather Stations






























Interactive Weather Map New forecast layout! Learn more

10-Day Weather Forecast

Advertisements
Track Severe Weather on mobile